リヤド の空港の天気 - METARとTAF

キング・ハーリド国際空港(リヤド) ( OERK / RUH ) - サウジアラビア リヤド
飛行場実況気象(Metar)
観測時間12/15 22:00 AST (12/15 19:00 UTC)
風向・風速北北西 3m/s
視程10km以上
天気現象
なし
気温14℃
湿度21%
気圧1020hPa
METAROERK 151900Z 33005KT CAVOK 14/M08 Q1020 NOSIG
過去の天気等 Google飛行場航空写真 Wunderground天気予報

過去48時間のMETAR

飛行場予報(TAF)
発表時間: 12/15 20:00 AST (12/15 17:00 UTC)
予報対象時間: 15日21時 AST ~ 17日3時 AST
風向・風速北北西 3m/s 瞬間風速 8m/s
視程8,000m
少しの雲 雲底高度 1,220m
全天の4割程度の雲 雲底高度 3,050m
16日13時 AST ~ 16日19時 AST に一時的に
視程4,000m
天気現象風塵 高い風塵
TAF OERK 151700Z 1518/1624 34006G16KT 8000 FEW040 SCT100
TEMPO 1610/1616 4000 DU BLDU